This is the latest recevied weather packets stored in our database for station/object ZL3GL-4. If no packets are shown the sender has not sent any weather packets the latest 10 day(s).
| Time | Temp. | Humidity | Pressure | Rain* | Wind** | Luminosity | Snow |
|---|---|---|---|---|---|---|---|
| 1778090257 | 10° C | 100% | 1011.7 hPa | 0 mm | 0.89 m/s, 267° | - | - |
| 1778089418 | 10° C | 100% | 1012 hPa | 0 mm | 0.45 m/s, 225° | - | - |
| 1778088573 | 10° C | 100% | 1012 hPa | 0 mm | 1.34 m/s, 273° | - | - |
| 1778087727 | 9.44° C | 100% | 1012.5 hPa | 0 mm | 0 m/s | - | - |
| 1778086884 | 9.44° C | 100% | 1012.8 hPa | 0 mm | 0.45 m/s, 136° | - | - |
| 1778086039 | 9.44° C | 100% | 1013 hPa | 0 mm | 1.34 m/s, 193° | - | - |
| 1778085195 | 9.44° C | 100% | 1013.3 hPa | 0 mm | 0.45 m/s, 84° | - | - |
| 1778083513 | 10° C | 100% | 1013.9 hPa | 0 mm | 0 m/s | - | - |
| 1778082667 | 10° C | 100% | 1014.1 hPa | 0 mm | 0 m/s | - | - |
| 1778081827 | 10° C | 100% | 1014.4 hPa | 0 mm | 1.34 m/s, 72° | - | - |
| 1778080980 | 10° C | 100% | 1014.7 hPa | 0 mm | 0 m/s | - | - |
| 1778080140 | 10° C | 100% | 1015.2 hPa | 0 mm | 0 m/s | - | - |
| 1778079293 | 10° C | 100% | 1015.5 hPa | 0 mm | 0 m/s | - | - |
| 1778078449 | 10° C | 100% | 1015.6 hPa | 0 mm | 0 m/s | - | - |
| 1778077606 | 10° C | 100% | 1016 hPa | 0 mm | 0 m/s | - | - |
| 1778076763 | 10° C | 100% | 1016.2 hPa | 0 mm | 0 m/s | - | - |
| 1778075918 | 10° C | 100% | 1016.4 hPa | 0 mm | 1.34 m/s, 273° | - | - |
| 1778075074 | 9.44° C | 100% | 1016.6 hPa | 0 mm | 0.89 m/s, 291° | - | - |
| 1778074232 | 10° C | 100% | 1016.8 hPa | 0 mm | 0.45 m/s, 232° | - | - |
| 1778073388 | 10° C | 100% | 1016.9 hPa | 0 mm | 1.34 m/s, 297° | - | - |
| 1778072544 | 10° C | 100% | 1017.3 hPa | 0 mm | 0 m/s | - | - |
| 1778071701 | 9.44° C | 100% | 1017.6 hPa | 0 mm | 0.45 m/s, 267° | - | - |
| 1778070857 | 9.44° C | 100% | 1017.9 hPa | 0 mm | 0.89 m/s, 276° | - | - |
| 1778070013 | 9.44° C | 100% | 1018 hPa | 0 mm | 0 m/s | - | - |
| 1778069169 | 9.44° C | 100% | 1018.2 hPa | 0 mm | 1.34 m/s, 278° | - | - |
* Rain latest hour (hover to see other rain measurements)
** Current wind speed in m/s (hover to see current wind gust speed)